createdAt,value
2023-01-31T00:01:35.158Z,59.24
2023-01-31T00:04:04.932Z,59.31
2023-01-31T00:06:45.125Z,59.55
2023-01-31T00:09:12.819Z,59.42
2023-01-31T00:11:39.655Z,59.57
2023-01-31T00:14:07.154Z,59.51
2023-01-31T00:16:34.933Z,59.64
2023-01-31T00:19:02.091Z,59.45
2023-01-31T00:21:30.953Z,59.60
2023-01-31T00:23:58.536Z,59.40
2023-01-31T00:26:26.290Z,59.46
2023-01-31T00:28:54.409Z,59.53
2023-01-31T00:31:23.267Z,59.67
2023-01-31T00:33:51.700Z,59.69
2023-01-31T00:36:23.751Z,59.58
2023-01-31T00:38:51.959Z,59.78
2023-01-31T00:41:23.370Z,59.62
2023-01-31T00:43:50.379Z,59.66
2023-01-31T00:46:17.740Z,59.87
2023-01-31T00:48:44.918Z,59.83
2023-01-31T00:51:11.907Z,59.86
2023-01-31T00:53:38.566Z,59.84
2023-01-31T00:56:11.010Z,60.13
2023-01-31T00:58:39.508Z,59.96
2023-01-31T01:01:13.117Z,60.11
2023-01-31T01:03:40.720Z,59.91
2023-01-31T01:06:08.163Z,59.99
2023-01-31T01:08:35.598Z,60.16
2023-01-31T01:11:12.530Z,60.00
2023-01-31T01:13:39.995Z,59.89
2023-01-31T01:16:18.614Z,59.90
2023-01-31T01:18:46.983Z,59.86
2023-01-31T01:21:24.923Z,60.00
2023-01-31T01:23:51.993Z,60.06
2023-01-31T01:26:25.192Z,59.93
2023-01-31T01:28:53.342Z,60.04
2023-01-31T01:31:22.557Z,60.30
2023-01-31T01:33:49.691Z,59.89
2023-01-31T01:36:21.976Z,60.27
2023-01-31T01:38:48.656Z,59.90
2023-01-31T01:41:15.603Z,60.06
2023-01-31T01:43:51.342Z,60.09
2023-01-31T01:46:34.303Z,60.10
2023-01-31T01:49:13.115Z,60.03
2023-01-31T01:51:41.460Z,59.92
2023-01-31T01:54:13.181Z,59.64
2023-01-31T01:56:45.204Z,59.86
2023-01-31T01:59:25.517Z,60.06
2023-01-31T02:01:55.751Z,60.06
2023-01-31T02:04:27.072Z,59.78
2023-01-31T02:06:54.038Z,59.83
2023-01-31T02:09:30.443Z,60.14
2023-01-31T02:11:58.685Z,60.23
2023-01-31T02:14:27.022Z,59.77
2023-01-31T02:16:53.469Z,60.41
2023-01-31T02:19:35.011Z,59.78
2023-01-31T02:22:14.548Z,59.59
2023-01-31T02:25:11.620Z,59.91
2023-01-31T02:28:04.249Z,59.84
2023-01-31T02:30:51.617Z,60.03
2023-01-31T02:33:43.684Z,60.03
2023-01-31T02:36:38.081Z,59.73
2023-01-31T02:39:21.950Z,60.02
2023-01-31T02:42:31.066Z,59.77
2023-01-31T02:45:33.345Z,60.19
2023-01-31T02:48:07.828Z,60.05
2023-01-31T02:50:45.836Z,59.94
2023-01-31T02:53:21.960Z,59.58
2023-01-31T02:56:14.789Z,59.84
2023-01-31T02:59:05.382Z,59.86
2023-01-31T03:01:36.651Z,60.17
2023-01-31T03:04:06.738Z,59.80
2023-01-31T03:06:36.754Z,59.97
2023-01-31T03:09:36.646Z,59.79
2023-01-31T03:12:27.208Z,59.87
2023-01-31T03:15:06.726Z,60.16
2023-01-31T03:18:21.076Z,60.06
2023-01-31T03:20:58.864Z,60.13
2023-01-31T03:23:29.748Z,60.10
2023-01-31T03:25:59.235Z,59.93
2023-01-31T03:28:30.697Z,59.92
2023-01-31T03:31:05.227Z,59.92
2023-01-31T03:33:38.270Z,59.95
2023-01-31T03:36:28.064Z,59.85
2023-01-31T03:39:08.858Z,60.04
2023-01-31T03:41:48.247Z,60.15
2023-01-31T03:44:39.482Z,60.09
2023-01-31T03:47:14.561Z,59.92
2023-01-31T03:49:43.706Z,59.92
2023-01-31T03:52:12.797Z,59.69
2023-01-31T03:54:51.081Z,59.79
2023-01-31T03:57:23.756Z,59.93
2023-01-31T03:59:55.301Z,60.08
2023-01-31T04:02:27.797Z,59.71
2023-01-31T04:05:03.118Z,59.77
2023-01-31T04:07:29.685Z,59.86
2023-01-31T04:09:56.229Z,59.75
2023-01-31T04:12:22.633Z,60.02
2023-01-31T04:14:49.049Z,59.58
2023-01-31T04:17:15.461Z,59.69
2023-01-31T04:19:41.815Z,59.99
2023-01-31T04:22:08.267Z,59.72
2023-01-31T04:24:34.751Z,59.68
2023-01-31T04:27:01.237Z,59.99
2023-01-31T04:29:27.652Z,59.83
2023-01-31T04:31:54.123Z,60.11
2023-01-31T04:34:20.512Z,59.80
2023-01-31T04:36:46.910Z,59.74
2023-01-31T04:39:14.526Z,59.52
2023-01-31T04:41:40.889Z,59.63
2023-01-31T04:44:07.262Z,59.46
2023-01-31T04:46:33.792Z,59.77
2023-01-31T04:49:00.249Z,59.30
2023-01-31T04:51:26.677Z,59.35
2023-01-31T04:53:53.132Z,59.69
2023-01-31T04:56:19.596Z,59.53
2023-01-31T04:58:46.100Z,59.61
2023-01-31T05:01:12.637Z,59.55
2023-01-31T05:03:39.108Z,59.18
2023-01-31T05:06:05.910Z,59.30
2023-01-31T05:08:32.806Z,59.25
2023-01-31T05:11:03.137Z,59.27
2023-01-31T05:13:32.802Z,59.44
2023-01-31T05:15:59.510Z,58.88
2023-01-31T05:18:26.013Z,59.21
2023-01-31T05:20:52.573Z,59.37
2023-01-31T05:23:19.089Z,59.06
2023-01-31T05:25:48.973Z,59.06
2023-01-31T05:28:15.460Z,59.12
2023-01-31T05:30:41.994Z,59.16
2023-01-31T05:33:08.818Z,59.21
2023-01-31T05:35:36.009Z,59.13
2023-01-31T05:38:02.490Z,59.49
2023-01-31T05:40:28.980Z,58.92
2023-01-31T05:42:57.469Z,59.01
2023-01-31T05:45:24.399Z,59.11
2023-01-31T05:47:51.077Z,59.36
2023-01-31T05:50:18.194Z,59.08
2023-01-31T05:52:53.806Z,59.15
2023-01-31T05:55:21.363Z,59.39
2023-01-31T05:57:48.273Z,59.41
2023-01-31T06:00:15.762Z,59.29
2023-01-31T06:02:42.695Z,59.26
2023-01-31T06:05:10.159Z,59.01
2023-01-31T06:07:37.000Z,58.91
2023-01-31T06:10:04.492Z,58.91
2023-01-31T06:12:31.332Z,58.91
2023-01-31T06:14:58.188Z,58.92
2023-01-31T06:17:24.782Z,58.61
2023-01-31T06:19:51.852Z,58.89
2023-01-31T06:22:19.328Z,58.80
2023-01-31T06:24:46.145Z,58.71
2023-01-31T06:27:12.586Z,58.81
2023-01-31T06:29:39.104Z,58.79
2023-01-31T06:32:06.046Z,59.03
2023-01-31T06:34:32.952Z,58.82
2023-01-31T06:36:59.476Z,58.89
2023-01-31T06:39:26.712Z,58.69
2023-01-31T06:41:53.067Z,58.84
2023-01-31T06:44:19.694Z,58.49
2023-01-31T06:46:46.067Z,58.61
2023-01-31T06:49:13.866Z,58.68
2023-01-31T06:51:40.253Z,58.53
2023-01-31T06:54:06.704Z,58.69
2023-01-31T06:56:33.157Z,58.61
2023-01-31T06:58:59.727Z,58.57
2023-01-31T07:01:26.763Z,58.77
2023-01-31T07:03:53.175Z,58.39
2023-01-31T07:06:21.551Z,58.48
2023-01-31T07:08:47.967Z,58.17
2023-01-31T07:11:14.398Z,58.34
2023-01-31T07:13:40.869Z,58.15
2023-01-31T07:16:07.846Z,58.08
2023-01-31T07:18:34.287Z,58.19
2023-01-31T07:21:00.688Z,58.11
2023-01-31T07:23:27.256Z,58.00
2023-01-31T07:25:53.623Z,58.04
2023-01-31T07:28:20.019Z,58.01
2023-01-31T07:30:47.881Z,57.76
2023-01-31T07:33:14.568Z,57.72
2023-01-31T07:35:43.961Z,57.66
2023-01-31T07:38:11.376Z,57.53
2023-01-31T07:40:39.948Z,57.69
2023-01-31T07:43:06.372Z,57.70
2023-01-31T07:45:33.357Z,57.09
2023-01-31T07:47:59.899Z,57.27
2023-01-31T07:50:27.765Z,57.04
2023-01-31T07:52:54.299Z,57.23
2023-01-31T07:55:21.240Z,57.25
2023-01-31T07:57:47.865Z,57.31
2023-01-31T08:00:33.608Z,56.65
2023-01-31T08:03:18.875Z,56.87
2023-01-31T08:05:48.348Z,56.77
2023-01-31T08:08:15.458Z,56.42
2023-01-31T08:10:42.002Z,56.32
2023-01-31T08:13:10.954Z,56.13
2023-01-31T08:15:37.372Z,56.15
2023-01-31T08:18:06.303Z,56.18
2023-01-31T08:20:33.695Z,56.09
2023-01-31T08:23:00.218Z,56.01
2023-01-31T08:25:29.309Z,55.83
2023-01-31T08:27:59.346Z,55.79
2023-01-31T08:30:26.788Z,55.89
2023-01-31T08:32:53.432Z,55.92
2023-01-31T08:35:20.087Z,55.56
2023-01-31T08:37:46.729Z,55.57
2023-01-31T08:40:13.347Z,55.30
2023-01-31T08:42:39.854Z,55.12
2023-01-31T08:45:07.197Z,55.32
2023-01-31T08:47:34.133Z,55.26
2023-01-31T08:50:00.666Z,55.60
2023-01-31T08:52:27.136Z,54.75
2023-01-31T08:54:53.507Z,54.88
2023-01-31T08:57:20.870Z,55.02
2023-01-31T08:59:47.295Z,54.25
2023-01-31T09:02:13.708Z,54.58
2023-01-31T09:04:40.258Z,54.66
2023-01-31T09:07:06.693Z,54.50
2023-01-31T09:09:33.161Z,54.25
2023-01-31T09:11:59.624Z,54.12
2023-01-31T09:14:26.044Z,54.02
2023-01-31T09:16:52.552Z,53.67
2023-01-31T09:19:19.062Z,53.61
2023-01-31T09:21:45.437Z,53.80
2023-01-31T09:24:11.888Z,53.08
2023-01-31T09:26:38.349Z,53.36
2023-01-31T09:29:04.747Z,53.18
2023-01-31T09:31:31.482Z,53.50
2023-01-31T09:33:57.890Z,53.32
2023-01-31T09:36:25.078Z,53.36
2023-01-31T09:38:56.731Z,53.17
2023-01-31T09:41:43.619Z,52.95
2023-01-31T09:44:21.483Z,52.99
2023-01-31T09:46:59.442Z,53.06
2023-01-31T09:49:31.177Z,52.99
2023-01-31T09:52:00.625Z,53.14
2023-01-31T09:54:35.318Z,52.66
2023-01-31T09:57:15.501Z,52.83
2023-01-31T10:00:13.850Z,52.71
2023-01-31T10:02:52.616Z,52.41
2023-01-31T10:05:22.395Z,52.45
2023-01-31T10:08:26.576Z,52.30
2023-01-31T10:10:57.275Z,52.20
2023-01-31T10:13:46.975Z,52.42
2023-01-31T10:16:31.227Z,52.00
2023-01-31T10:19:06.426Z,51.87
2023-01-31T10:21:41.046Z,51.76
2023-01-31T10:24:32.647Z,51.11
2023-01-31T10:27:07.406Z,51.29
2023-01-31T10:29:41.415Z,51.21
2023-01-31T10:32:38.419Z,50.81
2023-01-31T10:35:31.848Z,50.61
2023-01-31T10:38:14.037Z,50.57
2023-01-31T10:40:44.921Z,50.60
2023-01-31T10:43:20.358Z,50.41
2023-01-31T10:45:46.916Z,50.64
2023-01-31T10:48:25.404Z,50.17
2023-01-31T10:50:57.922Z,50.25
2023-01-31T10:53:36.517Z,50.10
2023-01-31T10:56:36.592Z,49.63
2023-01-31T10:59:10.666Z,49.81
2023-01-31T11:01:37.533Z,49.85
2023-01-31T11:04:23.290Z,49.59
2023-01-31T11:06:49.690Z,49.56
2023-01-31T11:09:16.947Z,49.68
2023-01-31T11:11:55.087Z,49.80
2023-01-31T11:14:22.134Z,49.83
2023-01-31T11:16:50.265Z,49.98
2023-01-31T11:19:34.808Z,49.96
2023-01-31T11:22:02.427Z,50.14
2023-01-31T11:24:33.087Z,49.86
2023-01-31T11:27:07.120Z,49.74
2023-01-31T11:29:50.430Z,49.40
2023-01-31T11:32:23.358Z,49.57
2023-01-31T11:35:30.375Z,49.41
2023-01-31T11:37:59.772Z,49.65
2023-01-31T11:40:29.795Z,49.63
2023-01-31T11:42:58.762Z,49.62
2023-01-31T11:45:28.347Z,49.64
2023-01-31T11:48:16.268Z,49.53
2023-01-31T11:51:10.754Z,49.34
2023-01-31T11:53:50.867Z,49.55
2023-01-31T11:56:27.708Z,49.53
2023-01-31T11:58:57.854Z,49.55
2023-01-31T12:01:26.593Z,49.49
2023-01-31T12:04:04.127Z,49.54
2023-01-31T12:06:39.558Z,49.35
2023-01-31T12:09:19.791Z,49.71
2023-01-31T12:12:06.411Z,49.72
2023-01-31T12:14:42.183Z,49.87
2023-01-31T12:17:17.328Z,49.85
2023-01-31T12:19:55.493Z,49.98
2023-01-31T12:22:30.069Z,50.12
2023-01-31T12:25:18.760Z,49.78
2023-01-31T12:28:04.148Z,50.25
2023-01-31T12:30:49.215Z,50.28
2023-01-31T12:33:40.911Z,50.05
2023-01-31T12:37:01.486Z,50.32
2023-01-31T12:39:38.006Z,50.52
2023-01-31T12:42:27.365Z,50.82
2023-01-31T12:45:23.265Z,50.76
2023-01-31T12:48:09.412Z,50.53
2023-01-31T12:50:41.409Z,50.63
2023-01-31T12:53:16.656Z,50.77
2023-01-31T12:56:18.012Z,50.50
2023-01-31T12:59:16.580Z,50.68
2023-01-31T13:01:52.285Z,50.60
2023-01-31T13:04:21.390Z,50.60
2023-01-31T13:07:13.047Z,50.49
2023-01-31T13:09:39.588Z,50.70
2023-01-31T13:12:15.361Z,50.57
2023-01-31T13:14:50.462Z,50.79
2023-01-31T13:17:26.058Z,50.57
2023-01-31T13:19:57.309Z,50.74
2023-01-31T13:22:30.009Z,50.79
2023-01-31T13:25:08.183Z,50.82
2023-01-31T13:27:39.250Z,50.97
2023-01-31T13:30:24.337Z,50.80
2023-01-31T13:32:55.037Z,50.90
2023-01-31T13:35:26.276Z,50.88
2023-01-31T13:37:59.786Z,50.89
2023-01-31T13:40:30.341Z,50.92
2023-01-31T13:43:02.915Z,50.84
2023-01-31T13:45:43.167Z,50.91
2023-01-31T13:48:34.058Z,50.83
2023-01-31T13:51:27.683Z,50.82
2023-01-31T13:53:58.063Z,50.77
2023-01-31T13:56:33.691Z,50.75
2023-01-31T13:59:00.601Z,50.92
2023-01-31T14:01:36.896Z,50.67
2023-01-31T14:04:13.533Z,50.81
2023-01-31T14:06:58.136Z,50.81
2023-01-31T14:09:30.439Z,50.90
2023-01-31T14:12:17.114Z,50.96
2023-01-31T14:14:51.841Z,50.77
2023-01-31T14:17:27.347Z,51.13
2023-01-31T14:19:56.663Z,51.16
2023-01-31T14:22:34.035Z,51.04
2023-01-31T14:25:11.164Z,51.32
2023-01-31T14:27:40.272Z,51.31
2023-01-31T14:30:06.900Z,51.27
2023-01-31T14:32:46.703Z,51.38
2023-01-31T14:35:13.023Z,51.46
2023-01-31T14:38:08.275Z,51.71
2023-01-31T14:40:52.728Z,51.66
2023-01-31T14:43:19.080Z,51.82
2023-01-31T14:46:04.735Z,51.63
2023-01-31T14:49:09.674Z,51.90
2023-01-31T14:51:49.955Z,51.91
2023-01-31T14:54:34.971Z,52.05
2023-01-31T14:57:13.015Z,52.19
2023-01-31T14:59:54.787Z,52.17
2023-01-31T15:02:40.828Z,52.21
2023-01-31T15:05:17.370Z,52.16
2023-01-31T15:07:59.037Z,52.72
2023-01-31T15:11:04.125Z,52.41
2023-01-31T15:13:50.583Z,52.57
2023-01-31T15:16:26.383Z,52.68
2023-01-31T15:19:20.476Z,52.52
2023-01-31T15:21:56.837Z,52.67
2023-01-31T15:24:31.644Z,52.54
2023-01-31T15:27:00.337Z,52.66
2023-01-31T15:29:43.898Z,52.83
2023-01-31T15:32:20.666Z,53.10
2023-01-31T15:34:55.870Z,52.89
2023-01-31T15:37:26.032Z,53.04
2023-01-31T15:40:12.446Z,53.48
2023-01-31T15:42:38.949Z,53.11
2023-01-31T15:45:21.994Z,53.00
2023-01-31T15:48:06.541Z,53.17
2023-01-31T15:50:34.154Z,53.59
2023-01-31T15:53:15.255Z,53.25
2023-01-31T15:55:42.118Z,53.35
2023-01-31T15:58:18.508Z,53.15
2023-01-31T16:00:49.437Z,53.38
2023-01-31T16:03:25.779Z,53.52
2023-01-31T16:05:55.009Z,53.43
2023-01-31T16:08:24.185Z,53.45
2023-01-31T16:10:50.805Z,53.40
2023-01-31T16:13:18.265Z,53.58
2023-01-31T16:15:45.503Z,53.54
2023-01-31T16:18:15.499Z,53.61
2023-01-31T16:20:49.466Z,53.69
2023-01-31T16:23:36.700Z,53.51
2023-01-31T16:26:06.075Z,53.66
2023-01-31T16:28:39.151Z,53.98
2023-01-31T16:31:09.650Z,53.73
2023-01-31T16:33:37.966Z,53.97
2023-01-31T16:36:17.391Z,53.91
2023-01-31T16:38:56.325Z,54.07
2023-01-31T16:41:36.646Z,54.00
2023-01-31T16:44:03.484Z,54.03
2023-01-31T16:46:45.463Z,54.10
2023-01-31T16:49:21.190Z,54.09
2023-01-31T16:51:48.735Z,54.21
2023-01-31T16:54:22.873Z,54.18
2023-01-31T16:57:01.549Z,54.12
2023-01-31T16:59:34.071Z,54.27
2023-01-31T17:02:21.985Z,54.24
2023-01-31T17:04:51.665Z,54.40
2023-01-31T17:07:30.312Z,54.38
2023-01-31T17:10:00.399Z,54.47
2023-01-31T17:12:29.554Z,54.59
2023-01-31T17:15:02.849Z,54.50
2023-01-31T17:17:34.275Z,54.66
2023-01-31T17:20:00.869Z,54.79
2023-01-31T17:22:27.328Z,54.46
2023-01-31T17:24:53.876Z,54.66
2023-01-31T17:27:21.602Z,54.54
2023-01-31T17:29:48.458Z,54.70
2023-01-31T17:32:17.235Z,54.52
2023-01-31T17:34:45.681Z,54.59
2023-01-31T17:37:14.287Z,54.83
2023-01-31T17:39:43.160Z,54.76
2023-01-31T17:42:18.884Z,54.70
2023-01-31T17:44:45.359Z,54.83
2023-01-31T17:47:11.790Z,54.93
2023-01-31T17:49:38.222Z,54.73
2023-01-31T17:52:04.689Z,54.72
2023-01-31T17:54:31.749Z,54.71
2023-01-31T17:56:58.176Z,54.97
2023-01-31T17:59:27.242Z,54.71
2023-01-31T18:01:54.199Z,54.90
2023-01-31T18:04:20.934Z,54.81
2023-01-31T18:06:47.625Z,54.75
2023-01-31T18:09:16.515Z,54.76
2023-01-31T18:11:46.972Z,54.88
2023-01-31T18:14:14.852Z,54.81
2023-01-31T18:16:41.387Z,54.99
2023-01-31T18:19:07.815Z,54.91
2023-01-31T18:21:41.479Z,54.93
2023-01-31T18:24:14.717Z,54.95
2023-01-31T18:26:45.496Z,54.87
2023-01-31T18:29:19.545Z,55.03
2023-01-31T18:31:47.172Z,55.25
2023-01-31T18:34:13.990Z,55.12
2023-01-31T18:36:40.389Z,55.17
2023-01-31T18:39:06.926Z,55.42
2023-01-31T18:41:33.322Z,55.34
2023-01-31T18:44:00.380Z,55.22
2023-01-31T18:46:30.730Z,55.12
2023-01-31T18:48:57.443Z,55.35
2023-01-31T18:51:23.896Z,55.31
2023-01-31T18:53:50.256Z,55.38
2023-01-31T18:56:19.510Z,55.26
2023-01-31T18:58:49.226Z,55.42
2023-01-31T19:01:18.546Z,55.34
2023-01-31T19:03:47.377Z,55.03
2023-01-31T19:06:16.769Z,55.33
2023-01-31T19:08:46.985Z,55.42
2023-01-31T19:11:15.720Z,55.57
2023-01-31T19:13:42.776Z,55.60
2023-01-31T19:16:15.831Z,55.50
2023-01-31T19:18:42.694Z,55.68
2023-01-31T19:21:45.251Z,55.74
2023-01-31T19:24:16.797Z,55.76
2023-01-31T19:26:43.789Z,55.97
2023-01-31T19:29:14.932Z,55.81
2023-01-31T19:31:42.004Z,55.77
2023-01-31T19:34:08.530Z,55.94
2023-01-31T19:36:40.541Z,55.91
2023-01-31T19:39:10.273Z,55.91
2023-01-31T19:41:36.836Z,56.00
2023-01-31T19:44:04.364Z,56.06
2023-01-31T19:46:33.735Z,56.07
2023-01-31T19:49:00.489Z,55.84
2023-01-31T19:51:27.598Z,56.02
2023-01-31T19:53:55.969Z,56.14
2023-01-31T19:56:24.170Z,56.13
2023-01-31T19:58:50.712Z,56.11
2023-01-31T20:01:17.338Z,56.38
2023-01-31T20:03:45.292Z,56.38
2023-01-31T20:06:17.320Z,56.24
2023-01-31T20:08:43.897Z,56.14
2023-01-31T20:11:10.978Z,55.97
2023-01-31T20:13:37.674Z,56.24
2023-01-31T20:16:07.258Z,56.48
2023-01-31T20:18:35.301Z,56.63
2023-01-31T20:21:01.849Z,56.71
2023-01-31T20:23:29.246Z,56.21
2023-01-31T20:25:56.438Z,56.48
2023-01-31T20:28:23.969Z,56.54
2023-01-31T20:30:50.799Z,56.45
2023-01-31T20:35:58.304Z,56.31
2023-01-31T20:38:24.742Z,56.23
2023-01-31T20:40:53.307Z,56.39
2023-01-31T20:43:21.928Z,56.69
2023-01-31T20:45:49.101Z,56.46
2023-01-31T20:48:18.246Z,56.53
2023-01-31T20:50:53.107Z,56.61
2023-01-31T20:53:20.267Z,56.62
2023-01-31T20:55:53.921Z,56.66
2023-01-31T20:58:20.330Z,56.74
2023-01-31T21:00:46.764Z,56.53
2023-01-31T21:03:13.259Z,56.67
2023-01-31T21:05:41.092Z,56.81
2023-01-31T21:08:07.426Z,56.55
2023-01-31T21:10:33.926Z,56.77
2023-01-31T21:13:00.353Z,56.51
2023-01-31T21:15:28.667Z,56.65
2023-01-31T21:17:55.702Z,57.24
2023-01-31T21:20:22.403Z,56.75
2023-01-31T21:22:49.066Z,56.72
2023-01-31T21:25:16.401Z,56.63
2023-01-31T21:27:43.213Z,56.72
2023-01-31T21:30:10.229Z,56.69
2023-01-31T21:32:36.642Z,56.30
2023-01-31T21:35:03.528Z,56.50
2023-01-31T21:37:30.052Z,56.89
2023-01-31T21:39:56.413Z,57.08
2023-01-31T21:42:22.778Z,56.60
2023-01-31T21:44:49.224Z,56.36
2023-01-31T21:47:15.940Z,56.91
2023-01-31T21:49:42.715Z,56.81
2023-01-31T21:52:09.931Z,56.63
2023-01-31T21:54:37.264Z,56.68
2023-01-31T21:57:03.930Z,56.44
2023-01-31T21:59:32.251Z,56.68
2023-01-31T22:01:59.016Z,56.65
2023-01-31T22:04:25.638Z,56.54
2023-01-31T22:06:53.355Z,56.73
2023-01-31T22:09:19.804Z,56.63
2023-01-31T22:11:47.887Z,56.76
2023-01-31T22:14:16.418Z,56.57
2023-01-31T22:16:43.287Z,56.39
2023-01-31T22:19:12.287Z,56.56
2023-01-31T22:21:46.387Z,56.67
2023-01-31T22:24:15.213Z,56.48
2023-01-31T22:26:43.862Z,56.32
2023-01-31T22:29:12.721Z,56.66
2023-01-31T22:31:39.587Z,56.50
2023-01-31T22:34:08.619Z,56.51
2023-01-31T22:36:35.040Z,56.68
2023-01-31T22:39:02.061Z,56.77
2023-01-31T22:41:28.513Z,56.91
2023-01-31T22:43:55.851Z,56.77
2023-01-31T22:46:25.296Z,56.93
2023-01-31T22:48:52.738Z,56.65
2023-01-31T22:51:21.774Z,56.82
2023-01-31T22:53:48.364Z,57.02
2023-01-31T22:56:21.249Z,56.96
2023-01-31T22:58:48.541Z,56.86
2023-01-31T23:01:20.548Z,56.80
2023-01-31T23:03:47.573Z,56.95
2023-01-31T23:06:15.320Z,56.79
2023-01-31T23:08:42.654Z,56.84
2023-01-31T23:11:15.596Z,56.99
2023-01-31T23:13:43.060Z,56.97
2023-01-31T23:16:15.789Z,56.93
2023-01-31T23:18:42.178Z,57.11
2023-01-31T23:21:14.492Z,57.26
2023-01-31T23:23:42.801Z,57.07
2023-01-31T23:26:10.486Z,56.87
2023-01-31T23:28:36.953Z,57.01
2023-01-31T23:31:03.694Z,57.19
2023-01-31T23:33:30.293Z,57.21
2023-01-31T23:35:56.774Z,57.01
2023-01-31T23:38:24.114Z,57.04
2023-01-31T23:40:54.322Z,56.67
2023-01-31T23:43:22.095Z,56.92
2023-01-31T23:45:48.902Z,56.85
2023-01-31T23:48:15.738Z,57.11
2023-01-31T23:50:42.226Z,57.27
2023-01-31T23:53:08.913Z,57.02
2023-01-31T23:55:35.487Z,56.93
2023-01-31T23:58:02.091Z,56.85
